logo
Search for airport 
image banner adimage banner adimage banner ad
image banner ad

YTMO - The Monument

Located in Aitkenvale, Australia

ICAO - YTMO, IATA - PHQ

Data provided by Airmate  

General information

Coordinates: S21°48'43" E139°55'24"
Elevation is 949 feet MSL.
 
View others Airports in Queensland

Operational data

Special qualification required
Current time UTC:
Current local time:
Weather at : - ( 0 km )
METAR: CYZP 161927Z AUTO 04004KT 9SM SCT008 19/16 A3003 RMK SLP171 DENSITY ALT 400FT
View NOTAMs / SUP AIP / TFR affecting this airport [VIEW]
Communications frequencies: [VIEW]

Runways:

RWY identifierQFULength (ft)Width (ft)SurfaceLDA (ft)
14146°623498ASP
32326°623498ASP

Airport contact information

Address: Aitkenvale Australia

Satellite view of YTMO